Koosah.INFO

KSEA Weather Observatons

This table shows observations taken by aircraft in the Seattle, WA, US area since 2019-05-19T09:24:25-0700. By default, it is sorted by time observed in ascending order. Click on a column heading to sort by that column instead. Click again on the same column heading to sort in descending order.

Show observations taken in the last:

Return to main page.

Time Observed Time Received Altitude (ft) Latitude Longitude Temperature (˚C) Wind Direction Wind speed (kn) Frequency (MHz) Source
2019-05-19T10:03:00-0700 2019-05-19T10:11:28-0700 33993 48.7389 -123.499 -57.5 125 40 130.025 .N323AS
2019-05-19T10:02:00-0700 2019-05-19T10:11:28-0700 34968 48.8271 -123.6083 -59.5 119 39 130.025 .N323AS
2019-05-19T09:58:00-0700 2019-05-19T10:09:04-0700 35005 49.1169 -123.9697 -59.7 130 38 130.025 .N323AS
2019-05-19T10:00:00-0700 2019-05-19T10:09:04-0700 35002 48.9413 -123.752 -59.7 118 36 130.025 .N323AS
2019-05-19T10:13:00-0700 2019-05-19T10:19:31-0700 10285 47.1055 -121.918 -6.2 110 26 130.025 .N305AS
2019-05-19T10:14:00-0700 2019-05-19T10:19:31-0700 8866 47.1037 -122.0423 -2.7 116 24 130.025 .N305AS
2019-05-19T09:53:00-0700 2019-05-19T09:55:10-0700 17147 47.1711 -122.0915 -18.2 101 23 130.025 .N309AS
2019-05-19T10:00:00-0700 2019-05-19T10:02:11-0700 10696 47.6298 -122.6474 -6.0 125 23 130.025 .N607AS
2019-05-19T11:01:00-0700 2019-05-19T11:01:34-0700 17663 47.6583 -122.9294 -19.7 106 23 130.025 .N546AS
2019-05-19T09:53:00-0700 2019-05-19T09:55:10-0700 16446 47.2072 -122.0989 -16.5 102 22 130.025 .N309AS
2019-05-19T09:58:00-0700 2019-05-19T10:00:11-0700 25837 46.744 -121.5832 -38.2 130 22 130.025 .N309AS
2019-05-19T09:59:00-0700 2019-05-19T10:00:35-0700 8061 47.6231 -122.5171 -1.5 117 22 130.025 .N607AS
2019-05-19T10:10:00-0700 2019-05-19T10:19:24-0700 12166 47.0903 -121.5505 -9.2 113 22 130.025 .N305AS
2019-05-19T10:44:00-0700 2019-05-19T10:44:43-0700 15396 47.3725 -122.0816 -14.5 92 22 130.025 .N548AS
2019-05-19T10:00:00-0700 2019-05-19T10:00:35-0700 9883 47.6274 -122.5991 -4.0 125 21 130.025 .N607AS
2019-05-19T10:00:00-0700 2019-05-19T10:02:11-0700 9989 47.6277 -122.6053 -4.2 125 21 130.025 .N607AS
2019-05-19T11:00:00-0700 2019-05-19T11:01:34-0700 16745 47.643 -122.8759 -17.7 103 21 130.025 .N546AS
2019-05-19T09:50:00-0700 2019-05-19T09:50:52-0700 10775 47.5323 -122.1585 -5.7 116 20 130.025 .N309AS
2019-05-19T09:59:00-0700 2019-05-19T10:00:35-0700 8925 47.6255 -122.5583 -2.2 120 20 130.025 .N607AS
2019-05-19T10:40:00-0700 2019-05-19T10:41:19-0700 6457 47.6083 -122.2886 2.2 130 20 130.025 .N548AS
2019-05-19T11:04:00-0700 2019-05-19T11:05:55-0700 10965 47.5179 -122.1678 -6.5 123 20 130.025 .N556AS
2019-05-19T09:58:00-0700 2019-05-19T10:00:11-0700 25363 46.7694 -121.6291 -36.7 130 19 130.025 .N309AS
2019-05-19T10:11:00-0700 2019-05-19T10:20:30-0700 18593 48.0033 -122.818 -21.0 112 19 130.025 .N323AS
2019-05-19T10:11:00-0700 2019-05-19T10:11:41-0700 18691 48.0075 -122.8218 -21.2 109 19 130.025 .N323AS
2019-05-19T10:12:00-0700 2019-05-19T10:20:30-0700 16745 47.9213 -122.7437 -17.2 112 19 130.025 .N323AS
2019-05-19T10:57:00-0700 2019-05-19T10:57:56-0700 7435 47.6054 -122.3691 0.5 118 19 130.025 .N546AS
2019-05-19T10:11:00-0700 2019-05-19T10:19:24-0700 12178 47.1107 -121.6675 -8.7 116 18 130.025 .N305AS
2019-05-19T10:40:00-0700 2019-05-19T10:41:19-0700 7413 47.6144 -122.2548 0.7 130 18 130.025 .N548AS
2019-05-19T10:42:00-0700 2019-05-19T10:42:59-0700 10732 47.5465 -122.1435 -6.5 120 18 130.025 .N548AS
2019-05-19T10:42:00-0700 2019-05-19T10:42:59-0700 11223 47.5256 -122.1168 -7.0 132 18 130.025 .N548AS
2019-05-19T11:04:00-0700 2019-05-19T11:05:55-0700 11531 47.4882 -122.1619 -7.5 118 18 130.025 .N556AS
2019-05-19T11:05:00-0700 2019-05-19T11:06:01-0700 14656 47.3608 -122.1365 -12.7 93 18 130.025 .N556AS
2019-05-19T09:48:00-0700 2019-05-19T09:50:46-0700 7517 47.6123 -122.2211 0.0 126 17 130.025 .N309AS
2019-05-19T10:09:00-0700 2019-05-19T10:11:41-0700 22446 48.1801 -122.9787 -29.7 109 17 130.025 .N323AS
2019-05-19T10:15:00-0700 2019-05-19T10:19:31-0700 7397 47.1025 -122.1624 -1.0 101 17 130.025 .N305AS
2019-05-19T10:40:00-0700 2019-05-19T10:41:19-0700 5614 47.5884 -122.3077 4.0 115 17 130.025 .N548AS
2019-05-19T10:42:00-0700 2019-05-19T10:42:59-0700 10282 47.5656 -122.1693 -5.0 119 17 130.025 .N548AS
2019-05-19T10:57:00-0700 2019-05-19T10:57:56-0700 8546 47.6128 -122.4079 -1.5 116 17 130.025 .N546AS
2019-05-19T11:00:00-0700 2019-05-19T11:01:34-0700 15790 47.6387 -122.819 -15.5 95 17 130.025 .N546AS
2019-05-19T11:00:00-0700 2019-05-19T11:02:03-0700 18596 47.2376 -122.0888 -21.7 108 17 130.025 .N611AS
2019-05-19T09:47:00-0700 2019-05-19T09:48:37-0700 5599 47.6022 -122.2946 3.7 125 15 130.025 .N309AS
2019-05-19T10:10:00-0700 2019-05-19T10:11:41-0700 20364 48.0926 -122.899 -24.7 110 15 130.025 .N323AS
2019-05-19T10:44:00-0700 2019-05-19T10:44:43-0700 14632 47.4041 -122.0857 -13.2 91 15 130.025 .N548AS
2019-05-19T10:56:00-0700 2019-05-19T10:57:10-0700 10172 47.55 -122.1405 -4.7 129 15 130.025 .N611AS
2019-05-19T11:00:00-0700 2019-05-19T11:02:03-0700 19474 47.2034 -122.083 -23.2 119 15 130.025 .N611AS
2019-05-19T11:02:00-0700 2019-05-19T11:03:40-0700 6891 47.614 -122.261 1.5 125 15 130.025 .N556AS
2019-05-19T11:05:00-0700 2019-05-19T11:06:01-0700 13692 47.3938 -122.1432 -11.0 92 15 130.025 .N556AS
2019-05-19T09:49:00-0700 2019-05-19T09:50:52-0700 9948 47.5577 -122.1629 -4.0 123 14 130.025 .N309AS
2019-05-19T09:58:00-0700 2019-05-19T10:00:29-0700 7062 47.6164 -122.4373 0.5 101 14 130.025 .N607AS
2019-05-19T10:43:00-0700 2019-05-19T10:44:43-0700 13710 47.4348 -122.0905 -10.7 102 14 130.025 .N548AS
2019-05-19T10:56:00-0700 2019-05-19T10:57:56-0700 6448 47.5867 -122.342 2.2 109 14 130.025 .N546AS
2019-05-19T10:56:00-0700 2019-05-19T10:57:10-0700 8872 47.5915 -122.1794 -2.5 113 14 130.025 .N611AS
2019-05-19T09:27:00-0700 2019-05-19T09:28:56-0700 3606 47.2827 -122.3193 7.7 75 12 130.025 .N556AS
2019-05-19T10:56:00-0700 2019-05-19T10:57:10-0700 9200 47.573 -122.1547 -3.0 139 12 130.025 .N611AS
2019-05-19T11:01:00-0700 2019-05-19T11:03:40-0700 6012 47.6035 -122.2927 2.7 122 12 130.025 .N556AS
2019-05-19T11:05:00-0700 2019-05-19T11:06:01-0700 12994 47.4262 -122.1497 -10.0 106 12 130.025 .N556AS
2019-05-19T09:58:00-0700 2019-05-19T09:58:51-0700 6360 47.6116 -122.3926 2.0 108 11 130.025 .N607AS
2019-05-19T09:58:00-0700 2019-05-19T10:00:29-0700 6458 47.6125 -122.3985 2.0 98 11 130.025 .N607AS
2019-05-19T11:01:00-0700 2019-05-19T11:03:40-0700 5178 47.5828 -122.3092 4.7 101 11 130.025 .N556AS
2019-05-19T09:28:00-0700 2019-05-19T09:28:56-0700 2628 47.333 -122.3192 8.0 18 10 130.025 .N556AS
2019-05-19T09:49:00-0700 2019-05-19T09:50:52-0700 9165 47.5828 -122.1696 -3.2 140 10 130.025 .N309AS
2019-05-19T09:58:00-0700 2019-05-19T09:58:51-0700 5582 47.5992 -122.3597 3.5 125 9 130.025 .N607AS
2019-05-19T09:26:00-0700 2019-05-19T09:28:56-0700 4134 47.2305 -122.3308 5.7 47 8 130.025 .N556AS
2019-05-19T09:46:00-0700 2019-05-19T09:47:02-0700 2214 47.4959 -122.3083 9.2 10 8 130.025 .N309AS
2019-05-19T09:46:00-0700 2019-05-19T09:47:02-0700 2379 47.5014 -122.3083 9.2 18 8 130.025 .N309AS
2019-05-19T09:48:00-0700 2019-05-19T09:48:37-0700 6371 47.6116 -122.2625 2.2 127 8 130.025 .N309AS
2019-05-19T09:48:00-0700 2019-05-19T09:50:46-0700 6498 47.6118 -122.2572 2.0 118 8 130.025 .N309AS
2019-05-19T10:53:00-0700 2019-05-19T10:54:02-0700 3774 47.522 -122.3092 7.5 137 8 130.025 .N611AS
2019-05-19T09:47:00-0700 2019-05-19T09:48:37-0700 4887 47.5811 -122.3092 4.7 109 6 130.025 .N309AS
2019-05-19T09:56:00-0700 2019-05-19T09:57:17-0700 2148 47.486 -122.3082 9.5 7 6 130.025 .N607AS
2019-05-19T10:53:00-0700 2019-05-19T10:54:02-0700 3583 47.5162 -122.3089 8.0 134 6 130.025 .N611AS
2019-05-19T10:53:00-0700 2019-05-19T10:55:22-0700 4177 47.533 -122.3097 6.7 138 6 130.025 .N611AS
2019-05-19T10:56:00-0700 2019-05-19T10:56:46-0700 3749 47.5294 -122.3083 7.7 132 6 130.025 .N546AS
2019-05-19T09:56:00-0700 2019-05-19T09:57:17-0700 2276 47.4911 -122.3082 9.5 14 5 130.025 .N607AS
2019-05-19T10:53:00-0700 2019-05-19T10:55:22-0700 3492 47.5132 -122.3089 8.0 142 5 130.025 .N611AS
2019-05-19T10:56:00-0700 2019-05-19T10:57:50-0700 4174 47.5428 -122.3094 7.0 153 5 130.025 .N546AS
2019-05-19T11:00:00-0700 2019-05-19T11:01:15-0700 3559 47.5261 -122.3095 8.2 154 5 130.025 .N556AS
2019-05-19T09:56:00-0700 2019-05-19T09:57:10-0700 1678 47.4714 -122.308 10.2 1 4 130.025 .N607AS
2019-05-19T09:56:00-0700 2019-05-19T09:57:17-0700 1993 47.481 -122.3082 9.7 11 4 130.025 .N607AS
2019-05-19T09:57:00-0700 2019-05-19T09:58:51-0700 4723 47.58 -122.3361 5.2 143 4 130.025 .N607AS
2019-05-19T10:56:00-0700 2019-05-19T10:56:46-0700 3558 47.5225 -122.308 8.0 120 4 130.025 .N546AS
2019-05-19T09:46:00-0700 2019-05-19T09:48:28-0700 2801 47.5158 -122.3085 8.2 33 3 130.025 .N309AS
2019-05-19T09:56:00-0700 2019-05-19T09:57:10-0700 1476 47.4667 -122.308 10.7 43 3 130.025 .N607AS
2019-05-19T10:53:00-0700 2019-05-19T10:54:02-0700 3404 47.5103 -122.3087 7.7 139 3 130.025 .N611AS
2019-05-19T10:55:00-0700 2019-05-19T10:56:12-0700 2093 47.4734 -122.3078 9.7 167 3 130.025 .N546AS
2019-05-19T10:55:00-0700 2019-05-19T10:56:46-0700 3363 47.5158 -122.3078 8.5 112 3 130.025 .N546AS
2019-05-19T10:55:00-0700 2019-05-19T10:57:50-0700 3461 47.5191 -122.3078 8.2 116 3 130.025 .N546AS
2019-05-19T11:00:00-0700 2019-05-19T11:01:15-0700 3324 47.5201 -122.3094 7.7 183 3 130.025 .N556AS
2019-05-19T09:46:00-0700 2019-05-19T09:48:28-0700 3428 47.5364 -122.3089 8.2 134 2 130.025 .N309AS
2019-05-19T10:38:00-0700 2019-05-19T10:39:23-0700 1280 47.4621 -122.3077 12.5 69 2 130.025 .N548AS
2019-05-19T11:00:00-0700 2019-05-19T11:01:08-0700 2484 47.4968 -122.3089 8.5 133 2 130.025 .N556AS
2019-05-19T10:38:00-0700 2019-05-19T10:39:23-0700 893 47.4575 -122.3078 13.5 316 1 130.025 .N548AS
2019-05-19T10:38:00-0700 2019-05-19T10:39:23-0700 1538 47.4667 -122.3077 11.2 131 1 130.025 .N548AS
2019-05-19T10:38:00-0700 2019-05-19T10:39:41-0700 1622 47.469 -122.3077 10.7 54 1 130.025 .N548AS
2019-05-19T10:38:00-0700 2019-05-19T10:39:48-0700 2005 47.4841 -122.3078 9.5 90 1 130.025 .N548AS
2019-05-19T10:38:00-0700 2019-05-19T10:39:48-0700 2172 47.4896 -122.3078 9.2 66 1 130.025 .N548AS
2019-05-19T10:38:00-0700 2019-05-19T10:39:48-0700 2375 47.495 -122.308 8.7 59 1 130.025 .N548AS
2019-05-19T10:52:00-0700 2019-05-19T10:53:31-0700 2008 47.4726 -122.307 10.0 251 1 130.025 .N611AS
2019-05-19T10:54:00-0700 2019-05-19T10:55:18-0700 1431 47.4621 -122.3077 12.0 75 1 130.025 .N546AS
2019-05-19T10:55:00-0700 2019-05-19T10:55:18-0700 1734 47.4666 -122.3078 11.0 352 1 130.025 .N546AS
2019-05-19T10:55:00-0700 2019-05-19T10:56:12-0700 1872 47.4688 -122.3078 10.5 291 1 130.025 .N546AS
2019-05-19T10:38:00-0700 2019-05-19T10:39:41-0700 1758 47.4738 -122.3077 10.2 313 0 130.025 .N548AS
2019-05-19T10:52:00-0700 2019-05-19T10:53:31-0700 1788 47.4681 -122.3071 10.7 168 0 130.025 .N611AS
2019-05-19T10:54:00-0700 2019-05-19T10:55:18-0700 1122 47.4576 -122.3077 12.2 90 0 130.025 .N546AS
2019-05-19T11:00:00-0700 2019-05-19T11:01:08-0700 2645 47.5024 -122.309 8.2 163 0 130.025 .N556AS
2019-05-19T11:00:00-0700 2019-05-19T11:01:15-0700 3039 47.5141 -122.3094 8.0 54 0 130.025 .N556AS
2019-05-19T09:46:00-0700 2019-05-19T09:47:02-0700 2531 47.5071 -122.3085 8.0 (missing) (missing) 130.025 .N309AS
2019-05-19T09:47:00-0700 2019-05-19T09:48:28-0700 4201 47.5582 -122.3092 6.0 (missing) (missing) 130.025 .N309AS
2019-05-19T09:49:00-0700 2019-05-19T09:50:46-0700 8485 47.6029 -122.1895 -1.0 (missing) (missing) 130.025 .N309AS
2019-05-19T09:54:00-0700 2019-05-19T09:55:10-0700 17858 47.1368 -122.0845 -19.0 (missing) (missing) 130.025 .N309AS
2019-05-19T09:56:00-0700 2019-05-19T09:57:10-0700 1854 47.4762 -122.308 9.0 (missing) (missing) 130.025 .N607AS
2019-05-19T09:59:00-0700 2019-05-19T10:00:29-0700 7604 47.6204 -122.4767 0.0 (missing) (missing) 130.025 .N607AS
2019-05-19T09:59:00-0700 2019-05-19T10:00:11-0700 26303 46.7185 -121.5374 -39.0 (missing) (missing) 130.025 .N309AS
2019-05-19T10:01:00-0700 2019-05-19T10:02:11-0700 11067 47.6324 -122.6923 -6.0 (missing) (missing) 130.025 .N607AS
2019-05-19T10:02:00-0700 2019-05-19T10:09:04-0700 34287 48.7669 -123.5335 -58.0 (missing) (missing) 130.025 .N323AS
2019-05-19T10:04:00-0700 2019-05-19T10:11:28-0700 33056 48.6426 -123.4054 -55.0 (missing) (missing) 130.025 .N323AS
2019-05-19T10:12:00-0700 2019-05-19T10:19:24-0700 12005 47.108 -121.792 -8.0 (missing) (missing) 130.025 .N305AS
2019-05-19T10:13:00-0700 2019-05-19T10:20:30-0700 14969 47.8409 -122.6716 -13.0 (missing) (missing) 130.025 .N323AS
2019-05-19T10:52:00-0700 2019-05-19T10:53:31-0700 2199 47.477 -122.307 9.0 (missing) (missing) 130.025 .N611AS
2019-05-19T10:54:00-0700 2019-05-19T10:55:22-0700 4939 47.5543 -122.3104 5.0 (missing) (missing) 130.025 .N611AS
2019-05-19T11:00:00-0700 2019-05-19T11:02:03-0700 20318 47.1684 -122.0773 -24.0 (missing) (missing) 130.025 .N611AS